Time;durP1;ratioP1;P1;durP2;ratioP2;P2;SDS_P1;SDS_P2;PMS_P1;PMS_P2;Temp;Humidity;BMP_temperature;BMP_pressure;BME280_temperature;BME280_humidity;BME280_pressure;Samples;Min_cycle;Max_cycle;Signal;HPM_P1;HPM_P2
2021/01/19 00:01:00;;;;;;;5.30;2.67;;;3.10;99.90;;;;;;5064553;28;20189;-58
2021/01/19 00:03:26;;;;;;;2.53;2.33;;;3.00;99.90;;;;;;5067016;28;20292;-57
2021/01/19 00:05:52;;;;;;;4.07;2.77;;;3.10;99.90;;;;;;5055277;28;20206;-57
2021/01/19 00:08:17;;;;;;;2.90;2.57;;;3.00;99.90;;;;;;5068112;28;20262;-58
2021/01/19 00:10:43;;;;;;;3.10;2.30;;;3.10;99.90;;;;;;5058182;28;20204;-58
2021/01/19 00:13:08;;;;;;;3.47;2.60;;;3.20;99.90;;;;;;5065225;28;20213;-58
2021/01/19 00:15:34;;;;;;;2.90;2.10;;;3.20;99.90;;;;;;5054010;28;20252;-58
2021/01/19 00:17:59;;;;;;;4.33;2.60;;;3.00;99.90;;;;;;5060644;28;20188;-58
2021/01/19 00:20:25;;;;;;;2.57;2.37;;;3.30;99.90;;;;;;5068201;28;20248;-57
2021/01/19 00:22:54;;;;;;;2.40;2.20;;;3.30;99.90;;;;;;5057841;28;20200;-57
2021/01/19 00:25:19;;;;;;;2.78;2.30;;;3.10;99.90;;;;;;5060404;28;20181;-57
2021/01/19 00:27:45;;;;;;;4.10;2.70;;;3.30;99.90;;;;;;5065645;28;20261;-57
2021/01/19 00:30:13;;;;;;;2.70;2.50;;;3.00;99.90;;;;;;5062043;28;20204;-57
2021/01/19 00:32:38;;;;;;;3.38;2.42;;;3.10;99.90;;;;;;5067039;28;20228;-57
2021/01/19 00:35:05;;;;;;;2.50;2.30;;;2.90;99.90;;;;;;5060485;28;20239;-57
2021/01/19 00:37:30;;;;;;;3.05;2.67;;;3.00;99.90;;;;;;5056355;28;20192;-57
2021/01/19 00:39:56;;;;;;;2.80;2.47;;;3.20;99.90;;;;;;5053455;28;20200;-57
2021/01/19 00:42:21;;;;;;;3.67;2.63;;;3.20;99.90;;;;;;5069051;28;20227;-58
2021/01/19 00:44:48;;;;;;;4.50;2.60;;;3.20;99.90;;;;;;5059146;28;20181;-58
2021/01/19 00:47:13;;;;;;;5.80;2.53;;;3.00;99.90;;;;;;5057104;28;20331;-58
2021/01/19 00:49:39;;;;;;;3.70;2.20;;;3.20;99.90;;;;;;5065865;28;20940;-57
2021/01/19 00:52:05;;;;;;;3.43;2.50;;;3.00;99.90;;;;;;5057904;28;20186;-57
2021/01/19 00:54:31;;;;;;;3.33;2.72;;;3.00;99.90;;;;;;5062716;28;20204;-58
2021/01/19 00:56:56;;;;;;;5.47;2.83;;;3.10;99.90;;;;;;5047843;28;20243;-58
2021/01/19 00:59:22;;;;;;;5.83;2.47;;;3.20;99.90;;;;;;5063143;28;20205;-58
2021/01/19 01:01:49;;;;;;;2.50;2.30;;;3.10;99.90;;;;;;5062640;28;20599;-57
2021/01/19 01:04:15;;;;;;;3.25;2.80;;;3.20;99.90;;;;;;5063991;28;20504;-57
2021/01/19 01:06:41;;;;;;;4.82;2.60;;;3.10;99.90;;;;;;5058448;28;20221;-57
2021/01/19 01:09:07;;;;;;;3.63;2.80;;;3.30;99.90;;;;;;5066490;28;20227;-58
2021/01/19 01:11:41;;;;;;;3.53;2.45;;;3.30;99.90;;;;;;5059038;28;20186;-57
2021/01/19 01:14:07;;;;;;;2.92;2.42;;;3.20;99.90;;;;;;5074182;28;20673;-57
2021/01/19 01:16:35;;;;;;;2.65;2.40;;;3.30;99.90;;;;;;5068860;28;20625;-58
2021/01/19 01:19:00;;;;;;;7.55;3.17;;;3.10;99.90;;;;;;5056024;28;20209;-57
2021/01/19 01:21:26;;;;;;;3.17;2.80;;;3.30;99.90;;;;;;5064749;28;20207;-58
2021/01/19 01:23:52;;;;;;;3.20;2.90;;;3.20;99.90;;;;;;5066349;28;20181;-58
2021/01/19 01:26:19;;;;;;;3.57;2.70;;;3.10;99.90;;;;;;5066868;28;20245;-57
2021/01/19 01:28:45;;;;;;;2.97;2.70;;;2.90;99.90;;;;;;5064308;28;20259;-57
2021/01/19 01:31:11;;;;;;;3.05;2.22;;;3.10;99.90;;;;;;5061474;28;20169;-57
2021/01/19 01:33:36;;;;;;;3.67;2.60;;;3.00;99.90;;;;;;5063385;28;20227;-57
2021/01/19 01:36:02;;;;;;;2.73;2.27;;;3.20;99.90;;;;;;5061392;28;20216;-57
2021/01/19 01:38:28;;;;;;;3.50;2.40;;;3.00;99.90;;;;;;5069614;28;20215;-57
2021/01/19 01:40:54;;;;;;;4.10;2.70;;;2.90;99.90;;;;;;5059547;28;20511;-58
2021/01/19 01:43:19;;;;;;;3.00;2.70;;;2.90;99.90;;;;;;5060125;28;20591;-57
2021/01/19 01:45:45;;;;;;;3.50;2.53;;;2.80;99.90;;;;;;5055548;28;20205;-57
2021/01/19 01:48:11;;;;;;;3.40;2.60;;;2.70;99.90;;;;;;5058983;28;20213;-57
2021/01/19 01:50:38;;;;;;;3.00;2.40;;;2.80;99.90;;;;;;5070149;28;20220;-57
2021/01/19 01:53:05;;;;;;;2.83;2.63;;;2.90;99.90;;;;;;5064829;28;21050;-57
2021/01/19 01:55:31;;;;;;;2.75;2.55;;;2.70;99.90;;;;;;5072879;28;20234;-57
2021/01/19 01:57:57;;;;;;;3.90;2.90;;;2.70;99.90;;;;;;5058661;28;20181;-58
2021/01/19 02:00:22;;;;;;;3.13;2.53;;;2.80;99.90;;;;;;5054295;28;20459;-57
2021/01/19 02:02:52;;;;;;;3.27;2.20;;;2.70;99.90;;;;;;5066382;28;20592;-57
2021/01/19 02:05:19;;;;;;;3.10;2.80;;;2.90;99.90;;;;;;5068960;28;20666;-57
2021/01/19 02:08:09;;;;;;;2.53;2.33;;;2.50;99.90;;;;;;5070354;28;20213;-57
2021/01/19 02:10:53;;;;;;;2.88;2.42;;;2.50;99.90;;;;;;5061578;28;20209;-58
2021/01/19 02:13:42;;;;;;;2.55;2.35;;;2.40;99.90;;;;;;5062375;28;20185;-58
2021/01/19 02:16:29;;;;;;;4.90;2.90;;;2.10;99.90;;;;;;5058459;28;20189;-57
2021/01/19 02:19:32;;;;;;;3.17;2.88;;;2.60;99.90;;;;;;5068957;28;20631;-58
2021/01/19 02:22:17;;;;;;;2.55;2.35;;;2.70;99.90;;;;;;5052580;28;20585;-57
2021/01/19 02:25:05;;;;;;;3.67;3.17;;;2.40;99.90;;;;;;5068641;28;20220;-57
2021/01/19 02:28:14;;;;;;;2.72;2.40;;;2.70;99.90;;;;;;5054578;28;20216;-57
2021/01/19 02:30:46;;;;;;;2.63;2.42;;;2.50;99.90;;;;;;5064063;28;20176;-58
2021/01/19 02:33:38;;;;;;;4.22;2.88;;;2.50;99.90;;;;;;5069746;28;20192;-58
2021/01/19 02:36:12;;;;;;;2.95;2.45;;;2.60;99.90;;;;;;5060864;28;20182;-58
2021/01/19 02:38:43;;;;;;;3.28;2.85;;;2.60;99.90;;;;;;5067814;28;20303;-57
2021/01/19 02:41:10;;;;;;;3.13;2.30;;;2.30;99.90;;;;;;5060231;28;20194;-57
2021/01/19 02:43:41;;;;;;;2.30;2.10;;;2.40;99.90;;;;;;5066519;28;20188;-57
2021/01/19 02:46:07;;;;;;;2.55;2.35;;;2.70;99.90;;;;;;5066048;28;20685;-58
2021/01/19 02:48:33;;;;;;;4.47;2.40;;;2.70;99.90;;;;;;5068336;28;20267;-58
2021/01/19 02:50:59;;;;;;;3.63;2.40;;;2.60;99.90;;;;;;5056079;28;20180;-58
2021/01/19 02:53:25;;;;;;;4.03;2.30;;;2.50;99.90;;;;;;5056608;28;20173;-58
2021/01/19 02:55:51;;;;;;;5.10;2.80;;;2.60;99.90;;;;;;5063945;28;20750;-58
2021/01/19 02:58:44;;;;;;;4.22;2.70;;;2.60;99.90;;;;;;5069060;28;20204;-58
2021/01/19 03:01:15;;;;;;;3.05;2.72;;;2.30;99.90;;;;;;5059803;28;20188;-58
2021/01/19 03:03:42;;;;;;;2.58;2.30;;;2.70;99.90;;;;;;5067510;28;20185;-58
2021/01/19 03:06:12;;;;;;;3.15;1.65;;;2.60;99.90;;;;;;5054623;28;20207;-58
2021/01/19 03:08:40;;;;;;;2.75;2.10;;;3.00;99.90;;;;;;5069921;28;20209;-57
2021/01/19 03:11:07;;;;;;;3.47;2.30;;;3.00;99.90;;;;;;5055181;28;20182;-57
2021/01/19 03:13:33;;;;;;;3.25;2.28;;;2.90;99.90;;;;;;5065705;28;20676;-58
2021/01/19 03:16:11;;;;;;;2.60;1.67;;;3.20;99.90;;;;;;5061264;28;20193;-58
2021/01/19 03:18:38;;;;;;;2.35;2.10;;;3.10;99.90;;;;;;5056734;28;20255;-57
2021/01/19 03:21:06;;;;;;;2.72;2.28;;;3.30;99.90;;;;;;5057138;28;20177;-58
2021/01/19 03:23:32;;;;;;;2.85;2.20;;;3.30;99.90;;;;;;5068654;28;20235;-57
2021/01/19 03:25:58;;;;;;;2.55;2.30;;;3.50;99.90;;;;;;5068002;28;20688;-57
2021/01/19 03:28:24;;;;;;;3.67;2.20;;;3.50;99.90;;;;;;5068229;28;20201;-57
2021/01/19 03:30:50;;;;;;;3.97;2.50;;;3.30;99.90;;;;;;5063909;28;20185;-57
2021/01/19 03:33:16;;;;;;;3.20;2.10;;;3.30;99.90;;;;;;5068128;28;20181;-58
2021/01/19 03:35:42;;;;;;;2.60;2.33;;;3.30;99.90;;;;;;5059111;28;20503;-57
2021/01/19 03:38:08;;;;;;;3.27;2.27;;;3.50;99.90;;;;;;5051665;28;20239;-57
2021/01/19 03:40:34;;;;;;;4.80;2.47;;;3.20;99.90;;;;;;5062202;28;20459;-58
2021/01/19 03:43:03;;;;;;;4.07;2.13;;;3.50;99.90;;;;;;5052934;28;20466;-57
2021/01/19 03:45:29;;;;;;;2.95;1.92;;;3.30;99.90;;;;;;5068140;28;20263;-58
2021/01/19 03:47:55;;;;;;;2.10;2.00;;;3.40;99.90;;;;;;5062228;28;20306;-58
2021/01/19 03:50:21;;;;;;;5.13;1.80;;;3.50;99.90;;;;;;5055229;28;20711;-58
2021/01/19 03:52:46;;;;;;;2.80;2.33;;;3.40;99.90;;;;;;5064218;28;20188;-57
2021/01/19 03:55:12;;;;;;;3.20;2.03;;;3.30;99.90;;;;;;5057239;28;20177;-58
2021/01/19 03:57:38;;;;;;;2.10;1.90;;;3.30;99.90;;;;;;5066936;28;20180;-57
2021/01/19 04:00:07;;;;;;;2.90;2.10;;;3.30;99.90;;;;;;5052914;28;20657;-58
2021/01/19 04:02:33;;;;;;;3.17;2.15;;;3.60;99.90;;;;;;5063789;28;20537;-57
2021/01/19 04:04:58;;;;;;;2.53;2.07;;;3.50;99.90;;;;;;5066122;28;20197;-57
2021/01/19 04:07:25;;;;;;;4.13;2.50;;;3.50;99.90;;;;;;5066493;28;20205;-57
2021/01/19 04:09:51;;;;;;;4.25;2.15;;;3.50;99.90;;;;;;5067345;28;20205;-57
2021/01/19 04:12:16;;;;;;;2.10;1.90;;;3.50;99.90;;;;;;5062064;28;20302;-58
2021/01/19 04:14:42;;;;;;;3.80;2.30;;;3.50;99.90;;;;;;5059043;28;20428;-57
2021/01/19 04:17:08;;;;;;;2.67;2.40;;;3.50;99.90;;;;;;5056287;28;20185;-58
2021/01/19 04:19:33;;;;;;;2.47;1.90;;;3.20;99.90;;;;;;5055189;28;20230;-57
2021/01/19 04:21:59;;;;;;;2.83;1.70;;;3.50;99.90;;;;;;5057973;28;20436;-57
2021/01/19 04:24:25;;;;;;;3.23;2.00;;;3.30;99.90;;;;;;5066020;28;20642;-57
2021/01/19 04:26:50;;;;;;;2.93;2.20;;;3.20;99.90;;;;;;5062121;28;20197;-58
2021/01/19 04:29:16;;;;;;;2.47;2.27;;;3.10;99.90;;;;;;5059041;28;20201;-57
2021/01/19 04:31:41;;;;;;;2.40;2.20;;;3.30;99.90;;;;;;5062655;28;20189;-57
2021/01/19 04:34:07;;;;;;;2.10;1.90;;;3.00;99.90;;;;;;5060025;28;20220;-57
2021/01/19 04:36:33;;;;;;;2.50;2.30;;;3.20;99.90;;;;;;5047409;28;20178;-58
2021/01/19 04:38:58;;;;;;;2.30;2.13;;;3.20;99.90;;;;;;5054012;28;20209;-57
2021/01/19 04:41:28;;;;;;;5.07;1.90;;;3.10;99.90;;;;;;5053384;28;20280;-57
2021/01/19 04:43:58;;;;;;;2.97;2.30;;;3.00;99.90;;;;;;5064073;28;20241;-57
2021/01/19 04:46:26;;;;;;;3.38;2.40;;;3.00;99.90;;;;;;5042994;28;588243;-59
2021/01/19 04:48:53;;;;;;;1.80;1.70;;;2.90;99.90;;;;;;5038027;28;20221;-57
2021/01/19 04:51:28;;;;;;;1.95;1.73;;;3.00;99.90;;;;;;5063569;28;20212;-57
2021/01/19 04:54:05;;;;;;;2.40;1.92;;;2.90;99.90;;;;;;5055546;28;20265;-57
2021/01/19 04:56:31;;;;;;;2.70;1.50;;;3.00;99.90;;;;;;5054750;28;20272;-57
2021/01/19 04:58:57;;;;;;;3.80;1.90;;;3.10;99.90;;;;;;5067502;28;20758;-57
2021/01/19 05:01:35;;;;;;;3.20;2.30;;;3.20;99.90;;;;;;5060363;28;20212;-57
2021/01/19 05:04:17;;;;;;;4.13;2.30;;;3.20;99.90;;;;;;5058348;28;20204;-57
2021/01/19 05:06:42;;;;;;;3.50;2.22;;;3.00;99.90;;;;;;5057760;28;20184;-57
2021/01/19 05:09:10;;;;;;;3.50;2.20;;;2.90;99.90;;;;;;5064013;28;20663;-57
2021/01/19 05:11:50;;;;;;;2.88;2.20;;;3.00;99.90;;;;;;5068341;28;20211;-58
2021/01/19 05:14:22;;;;;;;4.25;2.45;;;3.00;99.90;;;;;;5065734;28;20184;-56
2021/01/19 05:16:49;;;;;;;3.15;1.95;;;3.00;99.90;;;;;;5059769;28;20185;-57
2021/01/19 05:19:15;;;;;;;2.35;2.10;;;3.10;99.90;;;;;;5067543;28;20209;-58
2021/01/19 05:21:41;;;;;;;3.55;2.47;;;3.10;99.90;;;;;;5049946;28;20186;-57
2021/01/19 05:24:07;;;;;;;3.30;2.30;;;2.90;99.90;;;;;;5064916;28;20246;-57
2021/01/19 05:26:34;;;;;;;3.28;2.20;;;2.60;99.90;;;;;;5056539;28;20523;-57
2021/01/19 05:29:03;;;;;;;3.40;2.17;;;2.90;99.90;;;;;;5060979;28;20247;-57
2021/01/19 05:31:29;;;;;;;2.92;2.65;;;2.80;99.90;;;;;;5058826;28;20216;-57
2021/01/19 05:33:55;;;;;;;2.72;2.53;;;3.00;99.90;;;;;;5066326;28;20192;-58
2021/01/19 05:36:23;;;;;;;2.57;2.37;;;3.10;99.90;;;;;;5053405;28;20182;-57
2021/01/19 05:38:54;;;;;;;4.15;2.85;;;3.10;99.90;;;;;;5064029;28;20219;-57
2021/01/19 05:41:31;;;;;;;2.65;2.00;;;3.20;99.90;;;;;;5073415;28;20211;-57
2021/01/19 05:44:26;;;;;;;2.85;2.53;;;3.20;99.90;;;;;;5058349;28;20177;-57
2021/01/19 05:47:04;;;;;;;3.75;2.38;;;2.80;99.90;;;;;;5054722;28;20223;-58
2021/01/19 05:49:40;;;;;;;2.38;2.17;;;3.00;99.90;;;;;;5059569;28;20216;-57
2021/01/19 05:52:07;;;;;;;4.18;2.50;;;2.80;99.90;;;;;;5061228;28;20185;-57
2021/01/19 05:54:46;;;;;;;2.88;2.45;;;2.90;99.90;;;;;;5054795;28;20185;-57
2021/01/19 05:57:14;;;;;;;5.57;2.55;;;2.50;99.90;;;;;;5060695;28;20189;-58
2021/01/19 05:59:47;;;;;;;4.68;2.70;;;2.60;99.90;;;;;;5058450;28;20208;-58
2021/01/19 06:02:17;;;;;;;3.75;2.53;;;2.50;99.90;;;;;;5054139;28;20248;-57
2021/01/19 06:04:48;;;;;;;4.20;3.30;;;2.80;99.90;;;;;;5062441;28;20186;-57
2021/01/19 06:07:16;;;;;;;3.65;2.80;;;2.60;99.90;;;;;;5059165;28;20436;-58
2021/01/19 06:09:43;;;;;;;3.28;2.60;;;2.60;99.90;;;;;;5069697;28;20252;-58
2021/01/19 06:12:09;;;;;;;4.00;2.97;;;2.40;99.90;;;;;;5063325;28;20177;-58
2021/01/19 06:14:36;;;;;;;2.65;2.45;;;2.40;99.90;;;;;;5060856;28;20335;-59
2021/01/19 06:17:05;;;;;;;4.30;2.58;;;2.50;99.90;;;;;;5055727;28;20177;-58
2021/01/19 06:19:31;;;;;;;4.10;2.60;;;2.70;99.90;;;;;;5065683;28;20205;-58
2021/01/19 06:21:58;;;;;;;4.65;2.58;;;2.70;99.90;;;;;;5062710;28;20173;-57
2021/01/19 06:24:35;;;;;;;2.13;2.00;;;2.70;99.90;;;;;;5052264;28;20202;-57
2021/01/19 06:27:01;;;;;;;4.70;2.90;;;2.50;99.90;;;;;;5050490;28;20181;-57
2021/01/19 06:29:28;;;;;;;2.70;2.50;;;2.80;99.90;;;;;;5060026;28;20198;-57
2021/01/19 06:31:56;;;;;;;3.47;2.80;;;2.70;99.90;;;;;;5059220;28;20212;-57
2021/01/19 06:34:25;;;;;;;4.78;2.70;;;2.70;99.90;;;;;;5060667;28;20777;-56
2021/01/19 06:36:50;;;;;;;7.25;3.53;;;2.70;99.90;;;;;;5063907;28;20189;-56
2021/01/19 06:39:33;;;;;;;5.40;2.63;;;2.60;99.90;;;;;;5057997;28;20201;-57
2021/01/19 06:42:03;;;;;;;5.32;3.28;;;2.60;99.90;;;;;;5065905;28;20542;-56
2021/01/19 06:44:42;;;;;;;3.90;3.25;;;2.70;99.90;;;;;;5055319;28;20185;-56
2021/01/19 06:47:08;;;;;;;2.70;2.50;;;2.50;99.90;;;;;;5058264;28;20698;-56
2021/01/19 06:49:39;;;;;;;2.50;2.15;;;2.50;99.90;;;;;;5056521;28;20224;-56
2021/01/19 06:52:15;;;;;;;3.53;2.40;;;2.60;99.90;;;;;;5050383;28;20184;-56
2021/01/19 06:54:53;;;;;;;3.28;2.60;;;2.40;99.90;;;;;;5048154;28;20197;-56
2021/01/19 06:57:28;;;;;;;3.47;2.60;;;2.60;99.90;;;;;;5057169;28;20215;-56
2021/01/19 07:00:23;;;;;;;3.80;2.70;;;2.80;99.90;;;;;;5065377;28;20235;-57
2021/01/19 07:02:51;;;;;;;4.05;2.42;;;2.90;99.90;;;;;;5056521;28;20563;-56
2021/01/19 07:05:22;;;;;;;3.70;2.60;;;3.00;99.90;;;;;;5067930;28;20727;-57
2021/01/19 07:08:12;;;;;;;2.78;2.53;;;3.00;99.90;;;;;;5055912;28;20237;-52
2021/01/19 07:11:02;;;;;;;6.35;2.97;;;2.80;99.90;;;;;;5061650;28;20196;-51
2021/01/19 07:13:37;;;;;;;5.47;3.15;;;2.90;99.90;;;;;;5049471;28;20745;-59
2021/01/19 07:16:08;;;;;;;4.30;2.72;;;2.70;99.90;;;;;;5052376;28;20189;-57
2021/01/19 07:18:55;;;;;;;2.67;2.47;;;2.80;99.90;;;;;;5053322;28;20213;-59
2021/01/19 07:21:21;;;;;;;3.65;3.05;;;2.50;99.90;;;;;;5058067;28;21072;-57
2021/01/19 07:23:49;;;;;;;4.50;2.97;;;2.40;99.90;;;;;;5049739;28;20273;-58
2021/01/19 07:26:20;;;;;;;4.07;3.13;;;2.30;99.90;;;;;;5068938;28;20196;-57
2021/01/19 07:28:49;;;;;;;5.57;3.38;;;2.40;99.90;;;;;;5067033;28;20208;-57
2021/01/19 07:31:16;;;;;;;3.13;2.55;;;2.60;99.90;;;;;;5054608;28;20181;-59
2021/01/19 07:33:49;;;;;;;3.40;3.10;;;2.20;99.90;;;;;;5055582;28;20231;-59
2021/01/19 07:36:16;;;;;;;3.03;2.42;;;2.40;99.90;;;;;;5048210;28;20170;-56
2021/01/19 07:38:43;;;;;;;4.53;3.55;;;2.40;99.90;;;;;;5054858;28;20496;-59
2021/01/19 07:41:09;;;;;;;3.78;2.92;;;2.50;99.90;;;;;;5077290;28;20654;-56
2021/01/19 07:43:37;;;;;;;6.10;3.38;;;2.10;99.90;;;;;;5052304;28;20655;-56
2021/01/19 07:46:03;;;;;;;3.00;2.70;;;1.90;99.90;;;;;;5053218;28;20223;-57
2021/01/19 07:48:36;;;;;;;3.67;3.00;;;2.30;99.90;;;;;;5050395;28;20241;-57
2021/01/19 07:51:12;;;;;;;3.88;3.40;;;2.20;99.90;;;;;;5055510;28;20181;-58
2021/01/19 07:53:52;;;;;;;4.57;3.42;;;2.30;99.90;;;;;;5052437;28;20182;-57
2021/01/19 07:56:31;;;;;;;6.32;3.45;;;2.20;99.90;;;;;;5065814;28;20618;-59
2021/01/19 07:58:57;;;;;;;6.10;3.58;;;2.50;99.90;;;;;;5053303;28;20212;-60
2021/01/19 08:01:28;;;;;;;4.00;3.60;;;2.70;99.90;;;;;;5055870;28;20190;-58
2021/01/19 08:03:55;;;;;;;5.60;3.08;;;2.50;99.90;;;;;;5047959;28;20273;-60
2021/01/19 08:06:31;;;;;;;3.75;3.05;;;2.90;99.90;;;;;;5064012;28;20674;-58
2021/01/19 08:09:08;;;;;;;4.10;3.30;;;2.70;99.90;;;;;;5057652;28;20209;-59
2021/01/19 08:11:34;;;;;;;3.42;3.00;;;2.80;99.60;;;;;;5075299;28;20235;-57
2021/01/19 08:14:00;;;;;;;5.33;2.90;;;3.00;99.50;;;;;;5059030;28;20174;-59
2021/01/19 08:16:32;;;;;;;4.95;3.60;;;3.10;99.20;;;;;;5048804;28;20273;-57
2021/01/19 08:19:16;;;;;;;4.43;2.97;;;3.10;99.30;;;;;;5052882;28;20753;-57
2021/01/19 08:21:51;;;;;;;3.17;2.80;;;3.30;99.20;;;;;;5063933;28;20196;-58
2021/01/19 08:24:24;;;;;;;4.03;3.45;;;2.90;98.60;;;;;;5052265;28;20514;-58
2021/01/19 08:26:51;;;;;;;8.95;3.90;;;3.20;98.60;;;;;;5049318;28;20280;-58
2021/01/19 08:29:21;;;;;;;6.40;3.45;;;3.70;99.00;;;;;;5055681;28;20201;-60
2021/01/19 08:31:56;;;;;;;6.90;4.10;;;3.30;98.30;;;;;;5053388;28;20337;-60
2021/01/19 08:34:24;;;;;;;4.72;2.95;;;3.60;98.40;;;;;;5055718;28;20181;-59
2021/01/19 08:36:49;;;;;;;4.03;3.63;;;3.50;97.70;;;;;;5049089;28;20258;-58
2021/01/19 08:39:17;;;;;;;3.83;3.27;;;3.70;97.60;;;;;;5057028;28;20272;-58
2021/01/19 08:41:52;;;;;;;6.50;3.60;;;3.90;97.50;;;;;;5046744;28;20196;-58
2021/01/19 08:44:18;;;;;;;4.15;3.50;;;3.70;97.70;;;;;;5052715;28;20180;-58
2021/01/19 08:46:45;;;;;;;3.85;3.42;;;3.90;97.60;;;;;;5053381;28;20195;-59
2021/01/19 08:49:18;;;;;;;4.00;3.60;;;3.80;98.10;;;;;;5061952;28;20707;-58
2021/01/19 08:51:50;;;;;;;4.88;3.70;;;3.20;97.90;;;;;;5057776;28;20555;-59
2021/01/19 08:54:17;;;;;;;4.28;3.75;;;3.70;97.90;;;;;;5053328;28;20484;-57
2021/01/19 08:56:46;;;;;;;3.72;3.15;;;3.60;97.70;;;;;;5049630;28;20219;-60
2021/01/19 08:59:13;;;;;;;4.78;3.55;;;3.80;97.40;;;;;;5048698;28;20205;-61
2021/01/19 09:01:48;;;;;;;7.93;3.33;;;4.10;97.60;;;;;;5057674;28;20181;-59
2021/01/19 09:04:22;;;;;;;3.78;3.42;;;3.40;97.00;;;;;;5055627;28;20279;-62
2021/01/19 09:06:47;;;;;;;4.20;3.47;;;4.30;97.10;;;;;;5053214;28;20681;-61
2021/01/19 09:09:22;;;;;;;7.10;3.50;;;4.00;96.70;;;;;;5047053;28;20220;-59
2021/01/19 09:11:50;;;;;;;3.30;3.00;;;4.20;96.50;;;;;;5061470;28;20336;-60
2021/01/19 09:14:17;;;;;;;3.45;3.20;;;4.30;96.20;;;;;;5055959;28;20781;-59
2021/01/19 09:16:42;;;;;;;6.70;3.95;;;4.20;96.30;;;;;;5047955;28;20178;-60
2021/01/19 09:19:10;;;;;;;3.37;3.07;;;4.30;96.20;;;;;;5064967;28;20205;-59
2021/01/19 09:21:38;;;;;;;4.80;3.65;;;4.40;95.60;;;;;;5058923;28;20230;-61
2021/01/19 09:24:12;;;;;;;4.35;3.67;;;4.40;96.40;;;;;;5059732;28;20192;-60
2021/01/19 09:26:55;;;;;;;6.22;3.83;;;4.60;96.30;;;;;;5056280;28;20178;-60
2021/01/19 09:29:23;;;;;;;3.15;2.83;;;4.80;95.50;;;;;;5054250;28;20725;-60
2021/01/19 09:31:49;;;;;;;3.42;3.13;;;4.30;95.30;;;;;;5052383;28;20182;-59
2021/01/19 09:34:18;;;;;;;4.97;3.50;;;4.70;95.80;;;;;;5052736;28;20185;-58
2021/01/19 09:36:44;;;;;;;5.75;3.20;;;4.30;96.00;;;;;;5051137;28;20439;-57
2021/01/19 09:39:09;;;;;;;4.95;3.20;;;4.50;96.30;;;;;;5053125;28;20205;-57
2021/01/19 09:41:35;;;;;;;7.00;4.17;;;4.40;95.90;;;;;;5059883;28;20647;-58
2021/01/19 09:44:01;;;;;;;3.80;3.40;;;4.60;96.30;;;;;;5053402;28;20444;-58
2021/01/19 09:46:28;;;;;;;6.10;3.30;;;4.60;96.50;;;;;;5050183;28;20248;-58
2021/01/19 09:48:59;;;;;;;4.70;3.70;;;4.80;96.20;;;;;;5068525;28;20327;-58
2021/01/19 09:51:29;;;;;;;5.95;3.70;;;4.80;96.40;;;;;;5056836;28;20223;-58
2021/01/19 09:53:58;;;;;;;5.22;3.20;;;4.90;96.20;;;;;;5048615;28;20191;-57
2021/01/19 09:56:25;;;;;;;4.07;3.25;;;4.20;95.50;;;;;;5052490;28;20208;-56
2021/01/19 09:59:04;;;;;;;5.40;3.20;;;4.60;96.10;;;;;;5052834;28;20268;-56
2021/01/19 10:01:30;;;;;;;3.58;3.00;;;5.00;96.60;;;;;;5051110;28;20568;-58
2021/01/19 10:03:56;;;;;;;6.10;2.87;;;4.80;96.30;;;;;;5065614;28;20277;-58
2021/01/19 10:06:25;;;;;;;3.78;2.92;;;4.80;96.10;;;;;;5049896;28;20792;-57
2021/01/19 10:08:52;;;;;;;3.92;3.30;;;5.10;96.50;;;;;;5065496;28;20267;-59
2021/01/19 10:11:31;;;;;;;4.63;3.30;;;4.60;95.90;;;;;;5050903;28;20651;-58
2021/01/19 10:14:16;;;;;;;6.28;3.15;;;5.10;96.30;;;;;;5063190;28;20284;-57
2021/01/19 10:16:48;;;;;;;3.90;3.08;;;5.00;96.00;;;;;;5060581;28;20663;-56
2021/01/19 10:19:23;;;;;;;3.72;3.13;;;5.10;96.30;;;;;;5061908;28;20252;-57
2021/01/19 10:21:51;;;;;;;6.93;3.95;;;5.00;96.00;;;;;;5050914;28;20491;-57
2021/01/19 10:24:18;;;;;;;3.90;2.63;;;4.80;96.10;;;;;;5050635;28;20730;-57
2021/01/19 10:27:03;;;;;;;4.57;3.53;;;4.70;96.80;;;;;;5064114;28;20564;-57
2021/01/19 10:29:38;;;;;;;2.92;2.58;;;4.80;97.10;;;;;;5063306;28;20662;-57
2021/01/19 10:32:06;;;;;;;7.88;5.13;;;4.90;96.90;;;;;;5069508;28;20272;-58
2021/01/19 10:34:35;;;;;;;7.25;3.35;;;4.70;97.00;;;;;;5068418;28;20193;-60
2021/01/19 10:37:02;;;;;;;8.30;3.60;;;4.90;96.60;;;;;;5068437;28;20571;-58
2021/01/19 10:39:30;;;;;;;4.78;3.75;;;4.80;96.90;;;;;;5053365;28;20622;-57
2021/01/19 10:41:57;;;;;;;4.55;3.25;;;5.10;96.70;;;;;;5061662;28;20177;-58
2021/01/19 10:44:24;;;;;;;5.53;3.42;;;4.80;97.00;;;;;;5061701;28;20197;-58
2021/01/19 10:46:58;;;;;;;3.00;2.80;;;4.70;97.00;;;;;;5056804;28;20221;-59
2021/01/19 10:49:30;;;;;;;4.70;3.58;;;4.90;96.60;;;;;;5048053;28;20285;-57
2021/01/19 10:51:57;;;;;;;3.75;2.92;;;5.20;96.70;;;;;;5049815;28;20232;-58
2021/01/19 10:54:24;;;;;;;6.30;3.00;;;4.90;96.50;;;;;;5049937;28;20240;-59
2021/01/19 10:57:05;;;;;;;3.88;3.13;;;5.00;96.90;;;;;;5057478;28;20210;-57
2021/01/19 10:59:32;;;;;;;5.20;3.10;;;5.00;96.80;;;;;;5051465;28;20215;-58
2021/01/19 11:01:57;;;;;;;5.00;3.00;;;5.10;96.80;;;;;;5053051;28;20181;-58
2021/01/19 11:04:23;;;;;;;4.37;2.83;;;5.00;96.70;;;;;;5048480;28;20228;-58
2021/01/19 11:06:49;;;;;;;5.77;3.47;;;5.20;97.90;;;;;;5046495;28;20655;-61
2021/01/19 11:09:15;;;;;;;5.80;3.20;;;5.20;96.90;;;;;;5057393;28;20494;-58
2021/01/19 11:11:41;;;;;;;3.53;3.00;;;5.20;96.20;;;;;;5059304;28;20584;-60
2021/01/19 11:14:08;;;;;;;6.85;3.95;;;5.30;96.40;;;;;;5068471;28;20802;-59
2021/01/19 11:16:37;;;;;;;5.47;3.20;;;5.10;96.40;;;;;;5065985;28;20546;-58
2021/01/19 11:19:04;;;;;;;4.07;2.97;;;5.30;96.20;;;;;;5062231;28;20205;-57
2021/01/19 11:21:35;;;;;;;4.03;3.05;;;5.50;96.30;;;;;;5063893;28;20186;-59
2021/01/19 11:24:01;;;;;;;4.47;3.28;;;5.60;96.00;;;;;;5056913;28;20187;-60
2021/01/19 11:26:28;;;;;;;7.97;3.05;;;5.20;95.80;;;;;;5059613;28;20596;-57
2021/01/19 11:28:54;;;;;;;4.47;3.60;;;5.30;95.90;;;;;;5061636;28;20862;-58
2021/01/19 11:31:22;;;;;;;3.40;3.00;;;5.10;96.10;;;;;;5065785;28;20675;-58
2021/01/19 11:33:48;;;;;;;3.03;2.72;;;5.30;95.70;;;;;;5066585;28;20664;-57
2021/01/19 11:36:24;;;;;;;4.00;2.90;;;5.20;95.90;;;;;;5061754;28;20281;-58
2021/01/19 11:38:51;;;;;;;4.35;3.35;;;5.20;96.00;;;;;;5047884;28;20214;-59
2021/01/19 11:41:18;;;;;;;4.15;3.20;;;4.90;95.70;;;;;;5057956;28;20645;-58
2021/01/19 11:43:45;;;;;;;3.58;2.92;;;5.40;95.60;;;;;;5066325;28;20234;-57
2021/01/19 11:46:11;;;;;;;2.90;2.70;;;5.50;95.90;;;;;;5052128;28;20199;-57
2021/01/19 11:48:37;;;;;;;4.45;2.92;;;5.60;95.50;;;;;;5054143;28;20253;-59
2021/01/19 11:51:03;;;;;;;5.30;2.88;;;5.60;95.60;;;;;;5058288;28;20199;-57
2021/01/19 11:53:29;;;;;;;3.75;2.95;;;5.50;95.20;;;;;;5053895;28;20212;-59
2021/01/19 11:55:57;;;;;;;3.60;2.80;;;5.30;94.80;;;;;;5056468;28;20191;-58
2021/01/19 11:58:23;;;;;;;3.42;2.88;;;5.70;95.40;;;;;;5056559;28;20186;-59
2021/01/19 12:00:49;;;;;;;2.60;2.40;;;5.70;95.00;;;;;;5060089;28;20180;-58
2021/01/19 12:03:18;;;;;;;5.55;2.90;;;5.60;94.70;;;;;;5059128;28;20524;-58
2021/01/19 12:05:44;;;;;;;3.53;2.70;;;5.60;94.70;;;;;;5061925;28;20549;-59
2021/01/19 12:08:10;;;;;;;3.75;2.80;;;5.80;95.00;;;;;;5061506;28;20208;-60
2021/01/19 12:10:36;;;;;;;3.10;2.43;;;5.20;94.40;;;;;;5063948;28;20843;-59
2021/01/19 12:13:02;;;;;;;5.90;3.20;;;5.90;94.80;;;;;;5065532;28;20184;-59
2021/01/19 12:15:27;;;;;;;3.63;3.00;;;5.90;94.60;;;;;;5051365;28;20226;-59
2021/01/19 12:17:53;;;;;;;5.13;3.30;;;6.00;94.60;;;;;;5056447;28;20442;-59
2021/01/19 12:20:18;;;;;;;3.47;2.77;;;6.20;94.60;;;;;;5061970;28;20333;-56
2021/01/19 12:22:44;;;;;;;3.10;2.73;;;6.40;95.00;;;;;;5057581;28;20272;-58
2021/01/19 12:25:10;;;;;;;3.63;3.10;;;5.90;94.00;;;;;;5056581;28;20667;-58
2021/01/19 12:27:36;;;;;;;2.65;2.45;;;6.60;94.50;;;;;;5071509;28;20692;-57
2021/01/19 12:30:02;;;;;;;3.53;2.77;;;6.40;94.00;;;;;;5061163;28;20270;-59
2021/01/19 12:32:27;;;;;;;3.13;2.80;;;6.40;94.00;;;;;;5056352;28;20649;-60
2021/01/19 12:34:53;;;;;;;3.27;2.70;;;6.50;93.80;;;;;;5054772;28;20368;-59
2021/01/19 12:37:19;;;;;;;4.30;3.33;;;6.50;94.40;;;;;;5048723;28;20266;-59
2021/01/19 12:39:44;;;;;;;3.40;2.83;;;6.60;94.20;;;;;;5054443;28;20637;-61
2021/01/19 12:42:10;;;;;;;4.33;2.83;;;6.60;95.40;;;;;;5053786;28;20741;-61
2021/01/19 12:44:36;;;;;;;3.97;2.60;;;6.90;94.10;;;;;;5063370;28;20176;-59
2021/01/19 12:47:02;;;;;;;2.85;2.60;;;6.60;93.70;;;;;;5064134;28;20191;-62
2021/01/19 12:49:28;;;;;;;3.37;2.33;;;6.80;93.60;;;;;;5054143;28;20686;-57
2021/01/19 12:51:54;;;;;;;2.53;2.33;;;7.00;93.70;;;;;;5060092;28;20440;-58
2021/01/19 12:54:22;;;;;;;3.97;2.30;;;6.80;93.70;;;;;;5052371;28;20421;-58
2021/01/19 12:56:48;;;;;;;2.50;2.30;;;6.70;94.10;;;;;;5059353;28;20188;-58
2021/01/19 12:59:14;;;;;;;3.17;2.67;;;6.60;94.20;;;;;;5055915;28;20204;-58
2021/01/19 13:01:40;;;;;;;3.60;2.60;;;6.50;94.70;;;;;;5051448;28;20592;-58
2021/01/19 13:04:05;;;;;;;6.40;2.77;;;6.40;95.20;;;;;;5063543;28;20240;-59
2021/01/19 13:06:31;;;;;;;8.97;4.03;;;6.30;95.70;;;;;;5067503;28;20470;-59
2021/01/19 13:08:57;;;;;;;5.80;2.88;;;6.40;95.90;;;;;;5068429;28;20216;-60